createdAt,value
2018-03-15T00:00:33.452Z,14.83
2018-03-15T00:03:01.079Z,14.87
2018-03-15T00:05:28.485Z,15.30
2018-03-15T00:07:56.218Z,15.27
2018-03-15T00:10:23.681Z,64.60
2018-03-15T00:12:51.202Z,16.50
2018-03-15T00:15:18.659Z,15.37
2018-03-15T00:17:46.071Z,15.60
2018-03-15T00:20:13.483Z,15.33
2018-03-15T00:22:41.014Z,14.63
2018-03-15T00:25:08.638Z,15.27
2018-03-15T00:27:36.051Z,15.10
2018-03-15T00:30:03.601Z,14.63
2018-03-15T00:32:31.122Z,15.20
2018-03-15T00:34:58.569Z,16.07
2018-03-15T00:37:26.527Z,16.90
2018-03-15T00:39:53.924Z,14.60
2018-03-15T00:42:21.355Z,14.87
2018-03-15T00:44:48.849Z,14.87
2018-03-15T00:47:16.272Z,15.43
2018-03-15T00:49:43.684Z,14.27
2018-03-15T00:52:11.124Z,15.43
2018-03-15T00:54:38.568Z,14.90
2018-03-15T00:57:05.986Z,14.60
2018-03-15T00:59:33.410Z,14.50
2018-03-15T01:02:00.782Z,14.97
2018-03-15T01:04:28.187Z,16.83
2018-03-15T01:06:55.626Z,16.03
2018-03-15T01:09:23.010Z,16.03
2018-03-15T01:11:50.425Z,16.00
2018-03-15T01:14:17.807Z,15.80
2018-03-15T01:16:45.236Z,15.03
2018-03-15T01:19:12.694Z,15.00
2018-03-15T01:21:40.117Z,15.53
2018-03-15T01:24:07.529Z,14.43
2018-03-15T01:26:34.975Z,13.80
2018-03-15T01:29:02.450Z,15.27
2018-03-15T01:31:29.838Z,15.23
2018-03-15T01:33:57.280Z,15.17
2018-03-15T01:36:24.780Z,16.10
2018-03-15T01:38:52.160Z,15.40
2018-03-15T01:41:19.568Z,13.53
2018-03-15T01:43:47.011Z,14.80
2018-03-15T01:46:14.456Z,15.03
2018-03-15T01:48:41.958Z,15.43
2018-03-15T01:51:09.381Z,14.20
2018-03-15T01:53:36.804Z,15.03
2018-03-15T01:56:04.310Z,14.17
2018-03-15T01:58:31.714Z,14.83
2018-03-15T02:00:59.184Z,15.13
2018-03-15T02:03:26.720Z,14.27
2018-03-15T02:05:54.165Z,13.47
2018-03-15T02:08:21.602Z,15.47
2018-03-15T02:10:49.011Z,14.37
2018-03-15T02:13:16.426Z,14.23
2018-03-15T02:15:43.822Z,14.13
2018-03-15T02:18:11.227Z,14.60
2018-03-15T02:20:38.662Z,13.80
2018-03-15T02:23:06.127Z,13.80
2018-03-15T02:25:33.517Z,15.40
2018-03-15T02:28:00.941Z,13.80
2018-03-15T02:30:28.343Z,12.60
2018-03-15T02:32:55.771Z,13.30
2018-03-15T02:35:23.183Z,14.03
2018-03-15T02:37:50.558Z,13.17
2018-03-15T02:40:18.107Z,13.27
2018-03-15T02:42:45.489Z,12.53
2018-03-15T02:45:12.900Z,12.70
2018-03-15T02:47:41.216Z,14.20
2018-03-15T02:50:08.602Z,13.30
2018-03-15T02:52:36.039Z,12.97
2018-03-15T02:55:03.445Z,14.13
2018-03-15T02:57:30.849Z,14.17
2018-03-15T02:59:58.273Z,13.10
2018-03-15T03:02:25.679Z,12.63
2018-03-15T03:04:53.088Z,12.60
2018-03-15T03:07:20.498Z,13.00
2018-03-15T03:09:47.950Z,13.10
2018-03-15T03:12:15.351Z,12.47
2018-03-15T03:14:42.766Z,12.30
2018-03-15T03:17:10.182Z,13.40
2018-03-15T03:19:37.595Z,13.80
2018-03-15T03:22:05.018Z,13.80
2018-03-15T03:24:32.420Z,11.70
2018-03-15T03:26:59.819Z,12.50
2018-03-15T03:29:27.248Z,12.03
2018-03-15T03:31:54.639Z,12.47
2018-03-15T03:34:22.054Z,12.40
2018-03-15T03:36:49.469Z,12.70
2018-03-15T03:39:16.867Z,11.53
2018-03-15T03:41:44.338Z,13.73
2018-03-15T03:44:11.765Z,13.40
2018-03-15T03:46:39.153Z,11.40
2018-03-15T03:49:06.569Z,12.63
2018-03-15T03:51:33.982Z,11.30
2018-03-15T03:54:01.398Z,12.37
2018-03-15T03:56:28.799Z,13.00
2018-03-15T03:58:56.220Z,11.73
2018-03-15T04:01:23.635Z,12.30
2018-03-15T04:03:51.043Z,12.10
2018-03-15T04:06:18.441Z,13.17
2018-03-15T04:08:45.854Z,12.83
2018-03-15T04:11:13.290Z,12.07
2018-03-15T04:13:40.758Z,12.33
2018-03-15T04:16:08.138Z,11.87
2018-03-15T04:18:35.690Z,12.33
2018-03-15T04:21:03.090Z,12.17
2018-03-15T04:23:30.541Z,11.17
2018-03-15T04:25:57.946Z,12.70
2018-03-15T04:28:25.374Z,12.33
2018-03-15T04:30:52.776Z,12.00
2018-03-15T04:33:20.184Z,11.30
2018-03-15T04:35:47.606Z,11.60
2018-03-15T04:38:15.029Z,12.07
2018-03-15T04:40:42.429Z,11.13
2018-03-15T04:43:09.845Z,11.57
2018-03-15T04:45:37.256Z,10.80
2018-03-15T04:48:04.694Z,10.50
2018-03-15T04:50:32.095Z,10.70
2018-03-15T04:52:59.473Z,11.57
2018-03-15T04:55:26.895Z,12.33
2018-03-15T04:57:54.285Z,11.00
2018-03-15T05:00:21.696Z,11.60
2018-03-15T05:02:49.100Z,10.90
2018-03-15T05:05:16.489Z,12.60
2018-03-15T05:07:43.921Z,12.30
2018-03-15T05:10:11.306Z,12.13
2018-03-15T05:12:38.765Z,11.67
2018-03-15T05:15:07.035Z,12.40
2018-03-15T05:17:34.439Z,12.17
2018-03-15T05:20:01.860Z,11.93
2018-03-15T05:22:29.257Z,12.83
2018-03-15T05:24:56.644Z,11.13
2018-03-15T05:27:24.083Z,11.80
2018-03-15T05:29:51.455Z,12.63
2018-03-15T05:32:18.877Z,11.93
2018-03-15T05:34:46.277Z,12.40
2018-03-15T05:37:13.764Z,12.27
2018-03-15T05:39:41.106Z,12.80
2018-03-15T05:42:08.534Z,12.83
2018-03-15T05:44:35.946Z,13.43
2018-03-15T05:47:03.370Z,12.43
2018-03-15T05:49:30.758Z,12.83
2018-03-15T05:51:58.180Z,12.37
2018-03-15T05:54:25.581Z,13.07
2018-03-15T05:56:53.007Z,13.07
2018-03-15T05:59:20.424Z,12.10
2018-03-15T06:01:47.816Z,13.80
2018-03-15T06:04:15.240Z,13.67
2018-03-15T06:06:42.631Z,13.60
2018-03-15T06:09:10.068Z,14.30
2018-03-15T06:11:37.455Z,15.00
2018-03-15T06:14:04.888Z,13.80
2018-03-15T06:16:32.287Z,14.60
2018-03-15T06:18:59.707Z,14.20
2018-03-15T06:21:27.106Z,14.23
2018-03-15T06:23:54.546Z,14.27
2018-03-15T06:26:21.982Z,13.53
2018-03-15T06:28:49.395Z,14.30
2018-03-15T06:31:16.842Z,14.00
2018-03-15T06:33:44.298Z,13.23
2018-03-15T06:36:11.709Z,12.70
2018-03-15T06:38:39.141Z,14.20
2018-03-15T06:41:06.561Z,14.70
2018-03-15T06:43:33.948Z,13.90
2018-03-15T06:46:01.470Z,13.33
2018-03-15T06:48:28.852Z,14.80
2018-03-15T06:50:56.288Z,13.73
2018-03-15T06:53:23.730Z,12.77
2018-03-15T06:55:51.216Z,15.13
2018-03-15T06:58:18.648Z,13.67
2018-03-15T07:00:46.136Z,13.30
2018-03-15T07:03:13.511Z,13.10
2018-03-15T07:05:40.968Z,12.67
2018-03-15T07:08:08.409Z,14.03
2018-03-15T07:10:35.838Z,13.80
2018-03-15T07:13:03.244Z,13.97
2018-03-15T07:15:30.864Z,13.33
2018-03-15T07:17:58.268Z,12.83
2018-03-15T07:20:25.804Z,12.43
2018-03-15T07:22:53.226Z,12.43
2018-03-15T07:25:20.663Z,13.80
2018-03-15T07:27:48.087Z,12.83
2018-03-15T07:30:15.558Z,13.40
2018-03-15T07:32:42.961Z,14.40
2018-03-15T07:35:10.445Z,14.00
2018-03-15T07:37:37.873Z,14.60
2018-03-15T07:40:05.275Z,14.30
2018-03-15T07:42:32.720Z,15.90
2018-03-15T07:45:00.133Z,13.80
2018-03-15T07:47:27.589Z,14.67
2018-03-15T07:49:54.994Z,13.40
2018-03-15T07:52:22.389Z,14.50
2018-03-15T07:54:49.822Z,14.03
2018-03-15T07:57:17.212Z,13.63
2018-03-15T07:59:44.674Z,13.50
2018-03-15T08:02:12.257Z,14.40
2018-03-15T08:04:39.720Z,13.83
2018-03-15T08:07:07.105Z,13.57
2018-03-15T08:09:34.602Z,11.73
2018-03-15T08:12:02.002Z,13.30
2018-03-15T08:14:29.453Z,10.83
2018-03-15T08:16:56.829Z,11.67
2018-03-15T08:19:24.269Z,11.00
2018-03-15T08:21:51.670Z,12.00
2018-03-15T08:24:19.189Z,12.27
2018-03-15T08:26:46.586Z,12.40
2018-03-15T08:29:14.012Z,10.80
2018-03-15T08:31:41.446Z,13.03
2018-03-15T08:34:08.869Z,12.53
2018-03-15T08:36:36.341Z,13.00
2018-03-15T08:39:03.737Z,13.47
2018-03-15T08:41:31.154Z,12.90
2018-03-15T08:43:58.571Z,12.60
2018-03-15T08:46:26.009Z,12.40
2018-03-15T08:48:53.601Z,11.20
2018-03-15T08:51:21.024Z,12.07
2018-03-15T08:53:48.441Z,11.90
2018-03-15T08:56:15.851Z,11.90
2018-03-15T08:58:44.353Z,12.00
2018-03-15T09:01:12.226Z,10.63
2018-03-15T09:03:40.085Z,12.80
2018-03-15T09:06:07.661Z,12.57
2018-03-15T09:08:35.063Z,10.93
2018-03-15T09:11:02.602Z,12.40
2018-03-15T09:13:29.977Z,11.43
2018-03-15T09:15:58.745Z,10.47
2018-03-15T09:18:26.894Z,11.30
2018-03-15T09:20:55.726Z,10.67
2018-03-15T09:23:23.182Z,10.30
2018-03-15T09:25:50.678Z,11.00
2018-03-15T09:28:19.015Z,11.23
2018-03-15T09:30:46.427Z,10.33
2018-03-15T09:33:14.146Z,9.33
2018-03-15T09:35:41.548Z,9.90
2018-03-15T09:38:09.113Z,9.10
2018-03-15T09:40:36.606Z,9.53
2018-03-15T09:43:04.067Z,10.97
2018-03-15T09:45:31.607Z,10.67
2018-03-15T09:47:59.041Z,9.03
2018-03-15T09:50:26.532Z,8.83
2018-03-15T09:52:53.976Z,9.83
2018-03-15T09:55:21.445Z,9.60
2018-03-15T09:57:48.941Z,9.17
2018-03-15T10:00:16.579Z,9.53
2018-03-15T10:02:44.035Z,9.30
2018-03-15T10:05:11.451Z,8.33
2018-03-15T10:07:38.833Z,8.70
2018-03-15T10:10:06.253Z,8.73
2018-03-15T10:12:33.667Z,8.33
2018-03-15T10:15:01.074Z,8.57
2018-03-15T10:17:28.482Z,9.40
2018-03-15T10:19:55.939Z,9.30
2018-03-15T10:22:23.386Z,8.73
2018-03-15T10:24:50.818Z,7.90
2018-03-15T10:27:18.316Z,8.63
2018-03-15T10:29:45.757Z,7.87
2018-03-15T10:32:13.159Z,7.90
2018-03-15T10:34:40.624Z,7.43
2018-03-15T10:37:07.993Z,7.33
2018-03-15T10:39:35.552Z,7.50
2018-03-15T10:42:02.955Z,7.97
2018-03-15T10:44:30.364Z,6.80
2018-03-15T10:46:57.935Z,7.30
2018-03-15T10:49:25.390Z,7.37
2018-03-15T10:51:52.784Z,7.83
2018-03-15T10:54:20.254Z,7.63
2018-03-15T10:56:47.685Z,8.43
2018-03-15T10:59:15.183Z,7.50
2018-03-15T11:01:48.229Z,7.40
2018-03-15T11:04:15.623Z,7.23
2018-03-15T11:06:48.938Z,8.17
2018-03-15T11:09:21.787Z,8.37
2018-03-15T11:11:49.277Z,7.90
2018-03-15T11:14:16.659Z,7.60
2018-03-15T11:16:45.147Z,5.40
2018-03-15T11:19:13.163Z,7.60
2018-03-15T11:21:40.564Z,7.30
2018-03-15T11:24:07.999Z,7.00
2018-03-15T11:26:35.389Z,7.70
2018-03-15T11:29:02.986Z,7.17
2018-03-15T11:31:30.691Z,7.07
2018-03-15T11:33:58.116Z,5.90
2018-03-15T11:36:25.532Z,7.10
2018-03-15T11:38:53.128Z,7.33
2018-03-15T11:41:20.604Z,6.90
2018-03-15T11:43:48.150Z,7.67
2018-03-15T11:46:15.626Z,6.87
2018-03-15T11:48:43.086Z,6.93
2018-03-15T11:51:10.522Z,7.07
2018-03-15T11:53:37.936Z,7.63
2018-03-15T11:56:05.351Z,7.43
2018-03-15T11:58:32.898Z,7.43
2018-03-15T12:01:00.322Z,7.93
2018-03-15T12:03:27.713Z,7.07
2018-03-15T12:05:55.182Z,7.97
2018-03-15T12:08:22.613Z,7.27
2018-03-15T12:10:50.270Z,6.90
2018-03-15T12:13:18.377Z,6.17
2018-03-15T12:15:46.238Z,6.53
2018-03-15T12:18:13.728Z,8.00
2018-03-15T12:20:41.138Z,6.70
2018-03-15T12:23:08.552Z,6.70
2018-03-15T12:25:36.020Z,6.80
2018-03-15T12:28:03.471Z,6.83
2018-03-15T12:30:30.872Z,6.90
2018-03-15T12:32:58.321Z,7.23
2018-03-15T12:35:25.722Z,6.70
2018-03-15T12:37:53.256Z,6.37
2018-03-15T12:40:20.866Z,8.10
2018-03-15T12:42:48.308Z,6.67
2018-03-15T12:45:15.714Z,7.30
2018-03-15T12:47:43.150Z,6.40
2018-03-15T12:50:10.600Z,7.23
2018-03-15T12:52:38.009Z,6.67
2018-03-15T12:55:05.446Z,6.37
2018-03-15T12:57:33.046Z,6.60
2018-03-15T13:00:00.453Z,7.40
2018-03-15T13:02:27.889Z,6.63
2018-03-15T13:04:55.324Z,6.90
2018-03-15T13:09:55.518Z,6.47
2018-03-15T13:12:22.933Z,6.90
2018-03-15T13:14:52.455Z,7.27
2018-03-15T13:17:19.965Z,6.50
2018-03-15T13:19:47.595Z,6.67
2018-03-15T13:22:15.001Z,6.00
2018-03-15T13:24:42.664Z,7.03
2018-03-15T13:27:10.336Z,6.43
2018-03-15T13:29:37.845Z,6.93
2018-03-15T13:32:05.354Z,7.10
2018-03-15T13:34:32.851Z,6.27
2018-03-15T13:37:00.379Z,6.10
2018-03-15T13:39:27.855Z,6.10
2018-03-15T13:41:55.378Z,6.93
2018-03-15T13:44:22.825Z,7.13
2018-03-15T13:46:50.334Z,6.37
2018-03-15T13:49:17.819Z,5.93
2018-03-15T13:51:45.310Z,5.70
2018-03-15T13:54:13.385Z,5.63
2018-03-15T13:56:41.901Z,5.93
2018-03-15T13:59:10.940Z,6.37
2018-03-15T14:01:38.370Z,6.23
2018-03-15T14:04:05.749Z,6.07
2018-03-15T14:06:33.174Z,6.47
2018-03-15T14:09:00.603Z,6.00
2018-03-15T14:11:28.044Z,5.30
2018-03-15T14:13:55.475Z,5.60
2018-03-15T14:16:22.916Z,5.57
2018-03-15T14:18:50.349Z,5.60
2018-03-15T14:21:17.851Z,5.33
2018-03-15T14:23:45.247Z,5.67
2018-03-15T14:26:12.668Z,6.03
2018-03-15T14:28:40.129Z,5.90
2018-03-15T14:31:07.534Z,6.03
2018-03-15T14:33:34.996Z,6.00
2018-03-15T14:36:02.403Z,5.90
2018-03-15T14:38:29.814Z,5.90
2018-03-15T14:40:57.283Z,5.50
2018-03-15T14:43:24.645Z,6.40
2018-03-15T14:45:52.047Z,5.90
2018-03-15T14:48:19.474Z,5.53
2018-03-15T14:50:46.866Z,5.30
2018-03-15T14:53:14.338Z,5.43
2018-03-15T14:55:41.749Z,4.83
2018-03-15T14:58:09.198Z,4.80
2018-03-15T15:00:37.019Z,5.17
2018-03-15T15:03:04.414Z,5.10
2018-03-15T15:05:31.852Z,4.83
2018-03-15T15:07:59.276Z,5.00
2018-03-15T15:10:26.823Z,5.20
2018-03-15T15:12:54.222Z,5.80
2018-03-15T15:15:21.640Z,6.13
2018-03-15T15:17:49.027Z,5.33
2018-03-15T15:20:16.437Z,5.60
2018-03-15T15:22:43.858Z,5.40
2018-03-15T15:25:11.261Z,5.03
2018-03-15T15:27:38.752Z,5.27
2018-03-15T15:30:06.153Z,5.40
2018-03-15T15:32:33.604Z,5.10
2018-03-15T15:35:01.075Z,5.40
2018-03-15T15:37:28.443Z,4.70
2018-03-15T15:39:55.915Z,5.70
2018-03-15T15:42:23.318Z,5.83
2018-03-15T15:44:50.787Z,5.70
2018-03-15T15:47:18.175Z,5.30
2018-03-15T15:49:45.625Z,6.00
2018-03-15T15:52:13.220Z,5.97
2018-03-15T15:54:40.634Z,5.83
2018-03-15T15:57:08.054Z,6.27
2018-03-15T15:59:35.543Z,6.23
2018-03-15T16:02:03.036Z,6.33
2018-03-15T16:04:30.502Z,5.80
2018-03-15T16:06:57.974Z,6.07
2018-03-15T16:09:25.465Z,5.53
2018-03-15T16:11:52.955Z,5.80
2018-03-15T16:14:20.378Z,6.23
2018-03-15T16:16:47.833Z,5.87
2018-03-15T16:19:15.293Z,6.07
2018-03-15T16:21:42.721Z,5.50
2018-03-15T16:24:10.104Z,5.10
2018-03-15T16:26:37.537Z,4.97
2018-03-15T16:29:04.949Z,5.53
2018-03-15T16:31:32.351Z,4.97
2018-03-15T16:33:59.816Z,4.77
2018-03-15T16:36:27.224Z,5.57
2018-03-15T16:38:54.673Z,5.10
2018-03-15T16:41:22.077Z,5.10
2018-03-15T16:43:49.759Z,5.30
2018-03-15T16:46:17.322Z,4.80
2018-03-15T16:48:45.655Z,5.30
2018-03-15T16:51:13.104Z,5.27
2018-03-15T16:53:40.792Z,4.80
2018-03-15T16:56:08.217Z,5.93
2018-03-15T16:58:35.685Z,4.33
2018-03-15T17:01:03.117Z,5.43
2018-03-15T17:03:30.520Z,5.47
2018-03-15T17:05:58.043Z,4.60
2018-03-15T17:08:25.734Z,5.17
2018-03-15T17:10:53.211Z,5.67
2018-03-15T17:13:20.702Z,4.50
2018-03-15T17:15:48.136Z,5.17
2018-03-15T17:18:15.609Z,5.03
2018-03-15T17:20:43.049Z,5.00
2018-03-15T17:23:10.569Z,8.80
2018-03-15T17:25:38.069Z,4.70
2018-03-15T17:28:05.527Z,5.57
2018-03-15T17:30:32.956Z,4.70
2018-03-15T17:33:00.353Z,5.00
2018-03-15T17:35:27.765Z,5.50
2018-03-15T17:37:55.253Z,5.20
2018-03-15T17:40:23.053Z,5.00
2018-03-15T17:42:50.682Z,6.00
2018-03-15T17:45:18.157Z,5.97
2018-03-15T17:47:45.624Z,5.50
2018-03-15T17:50:13.162Z,6.23
2018-03-15T17:52:40.617Z,5.50
2018-03-15T17:55:08.052Z,6.90
2018-03-15T17:57:35.557Z,5.30
2018-03-15T18:00:03.345Z,5.53
2018-03-15T18:02:30.849Z,6.47
2018-03-15T18:04:58.355Z,6.17
2018-03-15T18:07:25.850Z,5.23
2018-03-15T18:09:53.272Z,5.73
2018-03-15T18:12:21.519Z,6.27
2018-03-15T18:14:52.024Z,5.90
2018-03-15T18:17:19.455Z,6.07
2018-03-15T18:19:46.966Z,5.90
2018-03-15T18:22:14.386Z,6.23
2018-03-15T18:24:41.874Z,6.27
2018-03-15T18:27:09.280Z,6.87
2018-03-15T18:29:36.848Z,5.90
2018-03-15T18:32:04.341Z,6.77
2018-03-15T18:34:31.818Z,6.37
2018-03-15T18:36:59.255Z,7.00
2018-03-15T18:39:26.725Z,6.50
2018-03-15T18:41:54.209Z,6.20
2018-03-15T18:44:21.600Z,5.90
2018-03-15T18:46:49.002Z,7.50
2018-03-15T18:49:16.472Z,7.23
2018-03-15T18:51:43.890Z,7.57
2018-03-15T18:54:11.374Z,6.47
2018-03-15T18:56:38.954Z,7.17
2018-03-15T18:59:06.477Z,7.00
2018-03-15T19:01:34.906Z,5.87
2018-03-15T19:04:02.404Z,7.17
2018-03-15T19:06:29.876Z,6.10
2018-03-15T19:08:57.306Z,7.10
2018-03-15T19:11:24.759Z,6.90
2018-03-15T19:13:52.190Z,7.20
2018-03-15T19:16:20.051Z,7.30
2018-03-15T19:18:49.741Z,6.70
2018-03-15T19:21:17.414Z,7.10
2018-03-15T19:27:14.681Z,7.57
2018-03-15T19:29:42.219Z,7.23
2018-03-15T19:32:09.639Z,8.23
2018-03-15T19:34:43.037Z,8.23
2018-03-15T19:37:10.844Z,8.40
2018-03-15T19:39:38.425Z,8.30
2018-03-15T19:42:06.431Z,8.47
2018-03-15T19:44:33.948Z,8.50
2018-03-15T19:47:01.348Z,8.60
2018-03-15T19:49:28.931Z,9.43
2018-03-15T19:51:56.820Z,9.50
2018-03-15T19:54:24.314Z,8.80
2018-03-15T19:56:51.913Z,8.70
2018-03-15T19:59:19.367Z,8.43
2018-03-15T20:01:46.966Z,9.17
2018-03-15T20:04:14.411Z,9.87
2018-03-15T20:06:41.840Z,9.87
2018-03-15T20:09:09.329Z,9.43
2018-03-15T20:11:36.799Z,9.10
2018-03-15T20:14:04.268Z,9.50
2018-03-15T20:16:31.729Z,10.00
2018-03-15T20:19:04.675Z,9.40
2018-03-15T20:21:32.162Z,9.97
2018-03-15T20:24:05.200Z,9.83
2018-03-15T20:26:32.716Z,8.73
2018-03-15T20:29:00.183Z,9.53
2018-03-15T20:31:27.613Z,9.47
2018-03-15T20:34:00.664Z,9.40
2018-03-15T20:36:28.128Z,9.40
2018-03-15T20:38:55.592Z,8.80
2018-03-15T20:41:24.943Z,8.97
2018-03-15T20:43:53.639Z,9.80
2018-03-15T20:46:26.757Z,9.33
2018-03-15T20:48:59.761Z,9.73
2018-03-15T20:51:28.045Z,9.50
2018-03-15T20:53:55.511Z,10.73
2018-03-15T20:56:28.884Z,9.80
2018-03-15T20:58:56.408Z,8.50
2018-03-15T21:01:23.824Z,11.00
2018-03-15T21:03:59.920Z,10.20
2018-03-15T21:06:27.405Z,9.83
2018-03-15T21:09:00.834Z,10.50
2018-03-15T21:11:30.408Z,11.77
2018-03-15T21:14:03.378Z,10.17
2018-03-15T21:16:31.242Z,11.03
2018-03-15T21:19:04.131Z,10.13
2018-03-15T21:21:34.568Z,10.30
2018-03-15T21:24:02.298Z,9.93
2018-03-15T21:26:37.902Z,10.47
2018-03-15T21:29:07.650Z,10.93
2018-03-15T21:31:35.936Z,10.27
2018-03-15T21:34:05.415Z,10.20
2018-03-15T21:36:32.830Z,9.83
2018-03-15T21:39:01.091Z,10.20
2018-03-15T21:41:28.567Z,11.23
2018-03-15T21:43:56.041Z,11.67
2018-03-15T21:46:23.481Z,11.27
2018-03-15T21:48:50.912Z,11.30
2018-03-15T21:51:18.324Z,12.67
2018-03-15T21:53:45.887Z,11.00
2018-03-15T21:56:13.287Z,11.40
2018-03-15T21:58:40.739Z,10.80
2018-03-15T22:01:08.375Z,10.60
2018-03-15T22:03:35.841Z,12.20
2018-03-15T22:06:04.986Z,11.50
2018-03-15T22:08:37.250Z,12.10
2018-03-15T22:11:06.121Z,12.00
2018-03-15T22:13:33.881Z,12.67
2018-03-15T22:16:04.930Z,11.70
2018-03-15T22:18:37.940Z,11.60
2018-03-15T22:21:12.145Z,11.90
2018-03-15T22:23:39.582Z,12.47
2018-03-15T22:29:05.206Z,11.67
2018-03-15T22:31:32.935Z,11.10
2018-03-15T22:34:09.747Z,12.40
2018-03-15T22:37:03.880Z,13.40
2018-03-15T22:39:34.181Z,11.97
2018-03-15T22:42:01.731Z,13.47
2018-03-15T22:44:29.113Z,13.73
2018-03-15T22:47:03.678Z,12.87
2018-03-15T22:49:31.160Z,12.90
2018-03-15T22:51:59.512Z,15.33
2018-03-15T22:54:27.016Z,15.20
2018-03-15T22:56:54.496Z,15.20
2018-03-15T22:59:21.975Z,16.40
2018-03-15T23:01:51.403Z,17.37
2018-03-15T23:04:18.792Z,18.57
2018-03-15T23:06:46.233Z,16.43
2018-03-15T23:09:13.613Z,16.53
2018-03-15T23:11:41.059Z,16.23
2018-03-15T23:14:08.526Z,17.70
2018-03-15T23:16:35.951Z,17.97
2018-03-15T23:19:03.778Z,18.20
2018-03-15T23:21:32.262Z,18.00
2018-03-15T23:23:59.842Z,17.90
2018-03-15T23:26:27.537Z,19.40
2018-03-15T23:28:55.093Z,20.70
2018-03-15T23:31:22.566Z,18.23
2018-03-15T23:33:49.980Z,17.17
2018-03-15T23:36:17.422Z,16.80
2018-03-15T23:38:44.853Z,17.93
2018-03-15T23:41:12.400Z,18.60
2018-03-15T23:43:39.880Z,18.60
2018-03-15T23:46:09.944Z,17.53
2018-03-15T23:48:37.404Z,18.80
2018-03-15T23:51:04.782Z,18.50
2018-03-15T23:53:32.239Z,19.77
2018-03-15T23:56:09.298Z,18.07
2018-03-15T23:58:50.454Z,19.90
